Aeroporto :
LOGIN :

Iscrizione | Disclaimer

   EN    FR    IT 

 










Sommario :    VFR   VFR Marginale   IFR   IFR Intensivo   IFR Molto Intensivo
Visibilità : 
Base nubi : 
>= 8 km
>= 3000ft
5 / 8 km
1000 / 3000 ft
1500m / 5 km
500 / 1000 ft
800 / 1500m
200 / 500 ft
< 800m
< 200 ft
Simboli :   Temporali  Nebbia  Neve Forte  Precipitazioni Forti  Vento > 20 kt
SIGMETs :   Varie  Temporali  Ghiacco  Turbolenza  Onda orograficha  Ceneri Vulcaniche






- Altitudine del aeroporto : 776 ft
- Codice IATA : RMS


ETAR - Ramstein Air Base

ULTIMO METAR :
  • 211055Z AUTO 23007KT 9999 FEW035 FEW200 26/17 A2979 RMK AO2 SLP087 T02640174

METARs OBSOLETI :
  • 210955Z AUTO 25005KT 9999 FEW120 FEW180 FEW210 25/17 A2980 RMK AO2 SLP091 T02520169
  • 210855Z AUTO 27003KT 9999 SCT095 SCT160 24/17 A2979 RMK AO2 SLP087 T02370174 51007
  • 210755Z AUTO 20004KT 9999 FEW140 FEW170 SCT200 24/17 A2977 RMK AO2 SLP080 T02350172
  • 210655Z AUTO 19004KT 9999 FEW130 22/17 A2977 RMK AO2 SLP080 T02190172

TAF TAF ETAR
Valido dal 21 a 10 ore il 22 a 16 ore UTC


211000Z 2110/2216 28012KT 9999 BKN040 QNH2975INS
TEMPO 2113/2118 28010G20KT 8000 -SHRA VCTS BKN040CB
TEMPO 2122/2204 3200 BR
BECMG 2204/2205 28012KT 9999 FEW025 BKN030 QNH2992INS
BECMG 2210/2211 30010G20KT 9999 BKN040 QNH3003INS TX28/2118Z TN19/2205Z



MetMap, La meteo Aeronautica in un colpo d'occhio ! - Copyright ORBIFLY Dicembre 2007 - Disclaimer

ORBIFLY MET'MAP TEAM :

Programmazione e sviluppo : Alexandra Zaïnal
Concezione : Baudouin d'Aumeries
Supporto tecnico e logistico : Manuel Goepfert
Aiuto : Marc-Olivier Méhu
Aiuto per la traduzione : Arnaldo La Scala




FONTI E CREDITI :

   NOAA